createdAt,value
2019-04-26T00:01:18.296Z,12.67
2019-04-26T00:03:48.785Z,12.47
2019-04-26T00:06:18.754Z,17.97
2019-04-26T00:08:53.538Z,13.30
2019-04-26T00:11:34.954Z,13.70
2019-04-26T00:14:23.252Z,12.93
2019-04-26T00:16:56.481Z,12.80
2019-04-26T00:19:26.351Z,11.97
2019-04-26T00:21:56.025Z,12.17
2019-04-26T00:24:28.486Z,11.80
2019-04-26T00:26:57.035Z,13.17
2019-04-26T00:29:26.533Z,11.83
2019-04-26T00:31:55.935Z,11.83
2019-04-26T00:34:25.366Z,11.60
2019-04-26T00:36:54.870Z,11.33
2019-04-26T00:39:25.052Z,10.97
2019-04-26T00:41:54.846Z,11.10
2019-04-26T00:44:24.259Z,10.80
2019-04-26T00:46:56.751Z,10.63
2019-04-26T00:49:28.335Z,11.10
2019-04-26T00:51:57.961Z,11.20
2019-04-26T00:54:28.553Z,11.40
2019-04-26T00:56:59.028Z,10.27
2019-04-26T00:59:29.316Z,11.13
2019-04-26T01:02:05.273Z,11.57
2019-04-26T01:04:34.680Z,12.40
2019-04-26T01:07:04.670Z,10.97
2019-04-26T01:09:34.531Z,10.83
2019-04-26T01:12:04.104Z,10.97
2019-04-26T01:14:33.812Z,12.07
2019-04-26T01:17:03.664Z,10.53
2019-04-26T01:19:34.045Z,11.27
2019-04-26T01:22:07.372Z,11.43
2019-04-26T01:24:38.813Z,11.30
2019-04-26T01:27:09.935Z,10.97
2019-04-26T01:29:40.746Z,12.00
2019-04-26T01:32:12.935Z,11.80
2019-04-26T01:34:44.156Z,11.03
2019-04-26T01:37:14.227Z,12.57
2019-04-26T01:39:49.411Z,11.50
2019-04-26T01:42:36.763Z,12.13
2019-04-26T01:45:12.529Z,12.37
2019-04-26T01:47:41.956Z,12.60
2019-04-26T01:50:12.473Z,11.00
2019-04-26T01:52:44.594Z,11.47
2019-04-26T01:55:14.562Z,11.70
2019-04-26T01:57:44.551Z,12.17
2019-04-26T02:00:28.145Z,11.90
2019-04-26T02:03:01.213Z,12.57
2019-04-26T02:05:31.986Z,12.20
2019-04-26T02:08:01.518Z,12.87
2019-04-26T02:10:31.429Z,12.97
2019-04-26T02:13:01.623Z,12.23
2019-04-26T02:15:33.571Z,12.77
2019-04-26T02:18:04.151Z,12.73
2019-04-26T02:21:08.016Z,12.67
2019-04-26T02:23:44.403Z,11.20
2019-04-26T02:26:33.327Z,13.07
2019-04-26T02:29:06.058Z,14.00
2019-04-26T02:31:37.788Z,14.70
2019-04-26T02:34:08.381Z,15.67
2019-04-26T02:36:56.295Z,15.57
2019-04-26T02:39:22.401Z,16.27
2019-04-26T02:41:55.114Z,16.00
2019-04-26T02:44:31.354Z,15.83
2019-04-26T02:47:37.275Z,15.03
2019-04-26T02:50:11.625Z,13.23
2019-04-26T02:53:00.365Z,13.60
2019-04-26T02:55:50.633Z,11.93
2019-04-26T02:58:23.115Z,13.40
2019-04-26T03:00:53.918Z,11.97
2019-04-26T03:03:25.319Z,13.03
2019-04-26T03:05:56.449Z,12.97
2019-04-26T03:08:27.950Z,13.70
2019-04-26T03:11:10.999Z,16.27
2019-04-26T03:13:54.569Z,16.67
2019-04-26T03:16:35.352Z,17.47
2019-04-26T03:19:37.767Z,20.83
2019-04-26T03:22:15.093Z,15.90
2019-04-26T03:25:00.214Z,16.37
2019-04-26T03:27:48.762Z,16.67
2019-04-26T03:30:33.345Z,17.37
2019-04-26T03:33:22.969Z,17.07
2019-04-26T03:36:15.077Z,16.57
2019-04-26T03:38:55.867Z,16.63
2019-04-26T03:41:36.609Z,16.83
2019-04-26T03:44:13.878Z,16.53
2019-04-26T03:46:50.772Z,16.97
2019-04-26T03:49:49.514Z,16.27
2019-04-26T03:52:44.115Z,15.10
2019-04-26T03:56:00.535Z,15.27
2019-04-26T03:58:59.883Z,16.87
2019-04-26T04:01:35.412Z,15.07
2019-04-26T04:04:24.661Z,13.90
2019-04-26T04:07:04.322Z,13.90
2019-04-26T04:09:30.345Z,13.77
2019-04-26T04:12:16.592Z,14.13
2019-04-26T04:14:59.673Z,13.43
2019-04-26T04:17:48.276Z,13.13
2019-04-26T04:21:08.448Z,11.93
2019-04-26T04:24:11.672Z,14.70
2019-04-26T04:27:09.137Z,15.23
2019-04-26T04:29:55.502Z,18.00
2019-04-26T04:32:34.838Z,18.70
2019-04-26T04:35:08.350Z,18.27
2019-04-26T04:38:04.248Z,17.20
2019-04-26T04:40:47.301Z,17.47
2019-04-26T04:43:33.948Z,17.53
2019-04-26T04:46:37.480Z,17.83
2019-04-26T04:49:44.126Z,18.07
2019-04-26T04:52:28.536Z,17.87
2019-04-26T04:55:09.724Z,18.00
2019-04-26T04:57:52.478Z,16.77
2019-04-26T05:01:09.647Z,19.40
2019-04-26T05:04:22.717Z,19.80
2019-04-26T05:07:25.067Z,17.70
2019-04-26T05:10:03.652Z,23.73
2019-04-26T05:12:39.558Z,19.70
2019-04-26T05:15:36.259Z,21.10
2019-04-26T05:19:03.227Z,18.23
2019-04-26T05:21:55.089Z,18.57
2019-04-26T05:25:09.488Z,19.33
2019-04-26T05:28:00.851Z,20.50
2019-04-26T05:31:10.610Z,19.07
2019-04-26T05:34:20.829Z,17.83
2019-04-26T05:37:37.176Z,18.07
2019-04-26T05:40:36.968Z,17.63
2019-04-26T05:43:41.400Z,17.33
2019-04-26T05:46:50.213Z,18.27
2019-04-26T05:50:10.150Z,17.07
2019-04-26T05:54:05.497Z,18.63
2019-04-26T05:56:48.543Z,17.90
2019-04-26T05:59:26.426Z,17.83
2019-04-26T06:02:41.079Z,15.63
2019-04-26T06:05:52.307Z,15.33
2019-04-26T06:09:23.721Z,15.07
2019-04-26T06:12:04.012Z,13.17
2019-04-26T06:15:29.511Z,12.07
2019-04-26T06:18:43.212Z,11.33
2019-04-26T06:21:36.320Z,10.87
2019-04-26T06:25:09.499Z,11.00
2019-04-26T06:28:03.971Z,10.63
2019-04-26T06:30:59.500Z,10.03
2019-04-26T06:33:41.514Z,11.03
2019-04-26T06:36:18.471Z,9.40
2019-04-26T06:39:32.970Z,8.93
2019-04-26T06:42:19.029Z,10.43
2019-04-26T06:45:50.478Z,12.20
2019-04-26T06:48:42.424Z,11.83
2019-04-26T06:51:24.522Z,11.40
2019-04-26T06:54:34.331Z,11.43
2019-04-26T06:57:40.820Z,11.63
2019-04-26T07:00:19.215Z,11.73
2019-04-26T07:03:24.539Z,11.67
2019-04-26T07:06:00.875Z,13.40
2019-04-26T07:08:57.366Z,11.13
2019-04-26T07:12:30.198Z,10.93
2019-04-26T07:15:29.769Z,9.57
2019-04-26T07:18:13.899Z,9.70
2019-04-26T07:21:00.731Z,9.80
2019-04-26T07:24:43.910Z,8.50
2019-04-26T07:27:42.995Z,10.23
2019-04-26T07:30:40.859Z,9.30
2019-04-26T07:33:33.735Z,11.33
2019-04-26T07:36:29.503Z,9.50
2019-04-26T07:39:33.878Z,9.90
2019-04-26T07:42:30.189Z,10.30
2019-04-26T07:45:20.233Z,9.30
2019-04-26T07:48:42.388Z,9.17
2019-04-26T07:52:08.505Z,9.37
2019-04-26T07:55:13.371Z,9.33
2019-04-26T07:58:09.069Z,9.87
2019-04-26T08:00:47.487Z,10.23
2019-04-26T08:03:37.987Z,9.97
2019-04-26T08:06:22.277Z,9.40
2019-04-26T08:09:06.142Z,9.37
2019-04-26T08:11:50.002Z,9.70
2019-04-26T08:14:25.415Z,9.70
2019-04-26T08:17:24.944Z,9.93
2019-04-26T08:20:16.057Z,9.60
2019-04-26T08:22:48.684Z,9.87
2019-04-26T08:25:20.357Z,10.97
2019-04-26T08:27:53.047Z,9.90
2019-04-26T08:30:24.023Z,10.20
2019-04-26T08:32:57.724Z,9.37
2019-04-26T08:35:30.364Z,9.57
2019-04-26T08:38:16.395Z,9.13
2019-04-26T08:40:41.267Z,8.57
2019-04-26T08:43:31.787Z,8.30
2019-04-26T08:46:22.406Z,7.70
2019-04-26T08:49:15.165Z,8.43
2019-04-26T08:51:47.746Z,8.67
2019-04-26T08:54:26.739Z,7.87
2019-04-26T08:57:02.812Z,7.83
2019-04-26T08:59:37.102Z,7.45
2019-04-26T09:02:37.951Z,7.42
2019-04-26T09:05:37.824Z,8.60
2019-04-26T09:08:10.263Z,7.97
2019-04-26T09:10:43.208Z,7.85
2019-04-26T09:13:16.824Z,7.55
2019-04-26T09:16:02.679Z,7.22
2019-04-26T09:18:42.483Z,7.03
2019-04-26T09:21:03.446Z,6.80
2019-04-26T09:23:51.946Z,6.92
2019-04-26T09:26:46.624Z,7.05
2019-04-26T09:29:30.396Z,7.20
2019-04-26T09:32:09.324Z,8.25
2019-04-26T09:34:41.298Z,8.03
2019-04-26T09:37:10.748Z,7.37
2019-04-26T09:39:41.608Z,8.00
2019-04-26T09:42:20.797Z,7.60
2019-04-26T09:44:56.961Z,7.45
2019-04-26T09:47:34.945Z,7.33
2019-04-26T09:50:22.453Z,7.85
2019-04-26T09:52:52.465Z,8.88
2019-04-26T09:55:34.538Z,7.70
2019-04-26T09:57:53.500Z,7.92
2019-04-26T10:00:28.032Z,8.40
2019-04-26T10:02:57.824Z,8.68
2019-04-26T10:05:27.459Z,9.18
2019-04-26T10:07:56.933Z,9.03
2019-04-26T10:10:31.099Z,9.50
2019-04-26T10:13:23.100Z,9.70
2019-04-26T10:16:10.410Z,8.78
2019-04-26T10:18:41.870Z,8.93
2019-04-26T10:21:11.301Z,8.48
2019-04-26T10:23:40.708Z,9.20
2019-04-26T10:26:10.230Z,8.33
2019-04-26T10:28:39.775Z,9.30
2019-04-26T10:31:09.226Z,8.30
2019-04-26T10:33:38.616Z,9.38
2019-04-26T10:36:08.069Z,8.53
2019-04-26T10:38:37.569Z,8.15
2019-04-26T10:41:07.230Z,8.58
2019-04-26T10:43:36.627Z,9.13
2019-04-26T10:46:07.770Z,8.65
2019-04-26T10:48:37.270Z,8.25
2019-04-26T10:51:07.272Z,9.60
2019-04-26T10:54:05.802Z,8.30
2019-04-26T10:57:00.942Z,9.55
2019-04-26T10:59:40.057Z,9.65
2019-04-26T11:02:12.746Z,8.48
2019-04-26T11:04:42.895Z,8.98
2019-04-26T11:07:12.508Z,8.15
2019-04-26T11:09:41.996Z,9.88
2019-04-26T11:12:14.579Z,9.08
2019-04-26T11:14:44.086Z,8.35
2019-04-26T11:17:16.036Z,8.30
2019-04-26T11:19:44.913Z,9.70
2019-04-26T11:22:14.383Z,9.40
2019-04-26T11:24:43.878Z,7.90
2019-04-26T11:27:13.325Z,9.08
2019-04-26T11:29:53.243Z,9.53
2019-04-26T11:32:13.915Z,9.50
2019-04-26T11:34:43.580Z,9.33
2019-04-26T11:37:13.442Z,9.53
2019-04-26T11:39:44.363Z,9.28
2019-04-26T11:42:13.809Z,8.93
2019-04-26T11:44:44.728Z,9.23
2019-04-26T11:47:14.494Z,9.58
2019-04-26T11:49:44.117Z,8.13
2019-04-26T11:52:13.824Z,8.80
2019-04-26T11:54:43.220Z,8.33
2019-04-26T11:57:13.648Z,8.63
2019-04-26T11:59:43.251Z,8.90
2019-04-26T12:02:16.181Z,8.98
2019-04-26T12:05:15.209Z,9.20
2019-04-26T12:07:49.775Z,8.50
2019-04-26T12:10:19.293Z,9.68
2019-04-26T12:12:51.889Z,9.73
2019-04-26T12:15:30.032Z,9.28
2019-04-26T12:17:58.294Z,8.65
2019-04-26T12:20:26.399Z,9.13
2019-04-26T12:22:53.455Z,9.03
2019-04-26T12:25:22.847Z,9.03
2019-04-26T12:27:53.549Z,8.70
2019-04-26T12:30:26.556Z,9.68
2019-04-26T12:32:54.698Z,8.58
2019-04-26T12:35:24.099Z,7.80
2019-04-26T12:37:54.780Z,8.93
2019-04-26T12:40:24.907Z,8.53
2019-04-26T12:42:54.350Z,9.03
2019-04-26T12:45:57.866Z,9.23
2019-04-26T12:48:27.313Z,8.75
2019-04-26T12:50:56.819Z,9.25
2019-04-26T12:53:26.755Z,9.55
2019-04-26T12:55:58.423Z,8.93
2019-04-26T12:58:28.101Z,8.43
2019-04-26T13:00:57.543Z,9.13
2019-04-26T13:03:29.306Z,8.57
2019-04-26T13:05:59.118Z,8.33
2019-04-26T13:08:28.668Z,9.50
2019-04-26T13:11:29.370Z,9.30
2019-04-26T13:14:03.027Z,9.30
2019-04-26T13:17:01.201Z,7.73
2019-04-26T13:19:28.641Z,8.97
2019-04-26T13:21:58.089Z,8.73
2019-04-26T13:24:27.534Z,8.57
2019-04-26T13:26:57.030Z,7.63
2019-04-26T13:29:27.227Z,10.37
2019-04-26T13:31:57.647Z,10.53
2019-04-26T13:34:27.138Z,9.68
2019-04-26T13:36:59.138Z,8.88
2019-04-26T13:39:27.795Z,9.80
2019-04-26T13:42:04.555Z,10.68
2019-04-26T13:44:45.976Z,13.95
2019-04-26T13:47:34.290Z,8.00
2019-04-26T13:50:10.748Z,8.93
2019-04-26T13:52:40.253Z,8.60
2019-04-26T13:55:09.797Z,7.77
2019-04-26T13:57:40.196Z,8.90
2019-04-26T14:00:12.368Z,8.77
2019-04-26T14:02:41.909Z,8.20
2019-04-26T14:05:15.311Z,8.97
2019-04-26T14:07:42.817Z,8.57
2019-04-26T14:10:12.464Z,8.20
2019-04-26T14:12:41.959Z,8.87
2019-04-26T14:15:11.504Z,10.93
2019-04-26T14:17:40.886Z,8.47
2019-04-26T14:20:11.598Z,12.27
2019-04-26T14:22:47.690Z,10.47
2019-04-26T14:25:19.935Z,9.83
2019-04-26T14:27:51.796Z,8.30
2019-04-26T14:30:21.665Z,9.17
2019-04-26T14:32:53.150Z,8.43
2019-04-26T14:35:22.744Z,9.97
2019-04-26T14:37:52.299Z,9.93
2019-04-26T14:40:22.280Z,8.60
2019-04-26T14:43:05.629Z,8.43
2019-04-26T14:45:24.237Z,9.07
2019-04-26T14:47:53.827Z,8.10
2019-04-26T14:50:23.478Z,8.13
2019-04-26T14:52:53.034Z,8.07
2019-04-26T14:55:22.905Z,8.43
2019-04-26T14:57:54.030Z,9.33
2019-04-26T15:00:29.137Z,8.73
2019-04-26T15:03:17.314Z,11.27
2019-04-26T15:05:57.794Z,12.73
2019-04-26T15:08:27.236Z,8.90
2019-04-26T15:11:00.998Z,7.40
2019-04-26T15:13:28.291Z,7.70
2019-04-26T15:15:57.739Z,7.80
2019-04-26T15:18:29.346Z,8.10
2019-04-26T15:20:58.694Z,8.07
2019-04-26T15:23:28.155Z,8.57
2019-04-26T15:25:58.629Z,7.50
2019-04-26T15:28:28.392Z,8.33
2019-04-26T15:30:57.861Z,7.77
2019-04-26T15:33:27.394Z,7.63
2019-04-26T15:35:56.952Z,8.00
2019-04-26T15:38:26.448Z,8.67
2019-04-26T15:41:26.939Z,7.67
2019-04-26T15:44:15.318Z,7.43
2019-04-26T15:46:55.731Z,8.30
2019-04-26T15:49:53.455Z,7.77
2019-04-26T15:52:22.914Z,8.60
2019-04-26T15:54:58.138Z,7.17
2019-04-26T15:57:24.489Z,7.60
2019-04-26T15:59:58.038Z,7.50
2019-04-26T16:02:26.469Z,7.63
2019-04-26T16:04:56.168Z,8.43
2019-04-26T16:07:28.740Z,8.53
2019-04-26T16:09:57.558Z,8.30
2019-04-26T16:12:27.316Z,8.20
2019-04-26T16:14:56.837Z,7.80
2019-04-26T16:17:26.585Z,8.70
2019-04-26T16:20:00.035Z,8.87
2019-04-26T16:22:30.072Z,9.40
2019-04-26T16:25:03.973Z,8.57
2019-04-26T16:27:32.417Z,8.93
2019-04-26T16:30:09.725Z,7.83
2019-04-26T16:33:13.477Z,8.13
2019-04-26T16:35:43.443Z,8.70
2019-04-26T16:38:34.946Z,8.67
2019-04-26T16:41:05.130Z,9.97
2019-04-26T16:43:40.008Z,10.20
2019-04-26T16:46:06.400Z,9.57
2019-04-26T16:48:36.171Z,9.63
2019-04-26T16:51:08.464Z,9.63
2019-04-26T16:53:52.092Z,10.67
2019-04-26T16:56:08.117Z,10.50
2019-04-26T16:58:42.234Z,10.30
2019-04-26T17:01:10.313Z,9.53
2019-04-26T17:03:45.228Z,9.07
2019-04-26T17:06:14.191Z,9.33
2019-04-26T17:08:49.110Z,10.50
2019-04-26T17:11:14.075Z,9.47
2019-04-26T17:13:51.218Z,8.90
2019-04-26T17:16:14.816Z,9.03
2019-04-26T17:18:44.314Z,9.63
2019-04-26T17:21:17.615Z,9.73
2019-04-26T17:24:12.191Z,9.20
2019-04-26T17:26:45.785Z,8.80
2019-04-26T17:29:15.321Z,10.00
2019-04-26T17:31:45.042Z,9.83
2019-04-26T17:34:14.491Z,9.20
2019-04-26T17:36:46.324Z,8.43
2019-04-26T17:39:17.189Z,8.57
2019-04-26T17:41:50.661Z,8.43
2019-04-26T17:44:20.589Z,8.80
2019-04-26T17:46:56.235Z,9.70
2019-04-26T17:49:21.460Z,11.33
2019-04-26T17:51:57.713Z,10.50
2019-04-26T17:54:41.632Z,9.33
2019-04-26T17:56:53.716Z,8.63
2019-04-26T17:59:33.349Z,8.97
2019-04-26T18:02:00.879Z,9.23
2019-04-26T18:04:33.735Z,8.87
2019-04-26T18:07:03.898Z,9.10
2019-04-26T18:09:42.949Z,8.30
2019-04-26T18:12:03.336Z,9.13
2019-04-26T18:14:32.093Z,9.27
2019-04-26T18:17:08.026Z,8.27
2019-04-26T18:19:54.373Z,7.77
2019-04-26T18:22:40.065Z,12.27
2019-04-26T18:25:12.434Z,9.30
2019-04-26T18:27:43.398Z,8.47
2019-04-26T18:30:14.282Z,8.63
2019-04-26T18:32:47.742Z,8.97
2019-04-26T18:35:16.940Z,8.53
2019-04-26T18:37:46.917Z,8.63
2019-04-26T18:40:16.511Z,8.77
2019-04-26T18:42:45.916Z,9.07
2019-04-26T18:45:21.258Z,8.80
2019-04-26T18:47:46.777Z,8.20
2019-04-26T18:50:16.759Z,9.50
2019-04-26T18:53:19.571Z,10.63
2019-04-26T18:55:49.412Z,8.87
2019-04-26T18:58:19.158Z,7.53
2019-04-26T19:00:48.720Z,9.37
2019-04-26T19:03:19.142Z,8.60
2019-04-26T19:05:48.798Z,7.80
2019-04-26T19:08:22.373Z,8.83
2019-04-26T19:10:59.226Z,8.27
2019-04-26T19:13:36.612Z,8.17
2019-04-26T19:16:18.179Z,7.30
2019-04-26T19:18:57.600Z,8.10
2019-04-26T19:21:40.265Z,7.90
2019-04-26T19:24:17.132Z,8.90
2019-04-26T19:26:44.201Z,8.10
2019-04-26T19:29:18.213Z,8.17
2019-04-26T19:31:44.063Z,7.63
2019-04-26T19:34:13.667Z,8.20
2019-04-26T19:36:43.148Z,7.63
2019-04-26T19:39:22.438Z,7.53
2019-04-26T19:41:52.055Z,8.23
2019-04-26T19:44:22.148Z,7.47
2019-04-26T19:47:06.479Z,8.50
2019-04-26T19:49:53.694Z,6.80
2019-04-26T19:52:45.150Z,8.17
2019-04-26T19:55:54.854Z,8.30
2019-04-26T19:58:25.392Z,8.07
2019-04-26T20:00:55.306Z,8.10
2019-04-26T20:03:28.118Z,8.40
2019-04-26T20:05:57.530Z,8.07
2019-04-26T20:08:29.320Z,8.27
2019-04-26T20:10:58.284Z,9.10
2019-04-26T20:13:27.711Z,8.37
2019-04-26T20:16:01.791Z,8.50
2019-04-26T20:18:38.991Z,8.07
2019-04-26T20:21:12.573Z,8.00
2019-04-26T20:23:42.558Z,8.83
2019-04-26T20:26:09.397Z,8.20
2019-04-26T20:28:38.900Z,8.40
2019-04-26T20:31:37.555Z,8.50
2019-04-26T20:34:10.908Z,8.90
2019-04-26T20:36:41.642Z,9.87
2019-04-26T20:39:12.441Z,8.93
2019-04-26T20:41:41.614Z,9.37
2019-04-26T20:44:13.440Z,9.30
2019-04-26T20:46:43.201Z,9.07
2019-04-26T20:49:12.720Z,9.10
2019-04-26T20:51:46.079Z,9.63
2019-04-26T20:54:16.338Z,8.20
2019-04-26T20:56:46.253Z,9.60
2019-04-26T20:59:16.631Z,8.77
2019-04-26T21:02:00.447Z,9.20
2019-04-26T21:04:34.961Z,9.47
2019-04-26T21:06:49.647Z,9.77
2019-04-26T21:09:19.608Z,8.57
2019-04-26T21:11:49.391Z,8.90
2019-04-26T21:14:18.986Z,8.67
2019-04-26T21:16:49.498Z,9.70
2019-04-26T21:19:20.299Z,8.97
2019-04-26T21:21:52.185Z,10.57
2019-04-26T21:24:23.643Z,10.60
2019-04-26T21:27:25.920Z,10.20
2019-04-26T21:30:08.507Z,10.27
2019-04-26T21:32:59.160Z,10.00
2019-04-26T21:35:33.698Z,9.03
2019-04-26T21:38:07.244Z,10.07
2019-04-26T21:40:45.331Z,10.00
2019-04-26T21:43:14.840Z,9.83
2019-04-26T21:45:44.423Z,10.43
2019-04-26T21:48:14.258Z,9.97
2019-04-26T21:50:44.459Z,10.03
2019-04-26T21:53:14.020Z,10.60
2019-04-26T21:55:43.559Z,10.87
2019-04-26T21:58:14.172Z,10.03
2019-04-26T22:01:03.059Z,9.60
2019-04-26T22:03:32.958Z,8.97
2019-04-26T22:06:04.048Z,10.33
2019-04-26T22:08:36.047Z,10.47
2019-04-26T22:11:05.671Z,10.60
2019-04-26T22:13:44.975Z,11.60
2019-04-26T22:16:34.283Z,10.03
2019-04-26T22:19:12.710Z,10.33
2019-04-26T22:22:05.804Z,10.90
2019-04-26T22:24:34.894Z,10.97
2019-04-26T22:27:04.556Z,11.37
2019-04-26T22:29:34.059Z,10.13
2019-04-26T22:32:03.806Z,10.90
2019-04-26T22:34:33.295Z,11.93
2019-04-26T22:37:11.522Z,10.67
2019-04-26T22:39:39.862Z,10.93
2019-04-26T22:42:05.958Z,11.13
2019-04-26T22:44:43.703Z,11.60
2019-04-26T22:47:25.220Z,10.53
2019-04-26T22:49:54.759Z,12.00
2019-04-26T22:52:24.559Z,11.80
2019-04-26T22:54:54.186Z,11.30
2019-04-26T22:57:23.810Z,12.37
2019-04-26T22:59:53.640Z,11.33
2019-04-26T23:02:27.572Z,11.27
2019-04-26T23:04:56.104Z,11.53
2019-04-26T23:07:26.550Z,11.13
2019-04-26T23:09:55.960Z,12.13
2019-04-26T23:12:47.176Z,11.33
2019-04-26T23:15:47.892Z,11.57
2019-04-26T23:18:51.476Z,10.73
2019-04-26T23:21:25.056Z,10.67
2019-04-26T23:23:54.636Z,10.67
2019-04-26T23:26:24.168Z,11.07
2019-04-26T23:28:53.683Z,10.33
2019-04-26T23:31:23.743Z,11.70
2019-04-26T23:33:53.879Z,11.80
2019-04-26T23:36:24.168Z,12.23
2019-04-26T23:38:53.821Z,12.20
2019-04-26T23:41:23.693Z,11.77
2019-04-26T23:43:56.825Z,12.83
2019-04-26T23:46:25.935Z,11.80
2019-04-26T23:48:55.647Z,11.97
2019-04-26T23:51:26.156Z,12.13
2019-04-26T23:53:58.153Z,12.77
2019-04-26T23:56:27.617Z,12.37
2019-04-26T23:58:57.073Z,11.93
